METAR AND TAF INFORMATION
METAR FOR SAWH
ADDS - METARS form results

(2208 UTC 25 October 2021)
Data provider http://aviationweather.gov/metar/data/
 
METAR text: SAWH 252200Z 23018KT 7000 -SN FEW007 SCT025 02/M00 Q0987
Conditions at: SAWH (USHUAIA (ARG-NAV, AR) observed 2200 UTC 25 October 2021
Temperature: 2.0°C (36°F)
Dewpoint: 0.0°C (32°F) [RH = 87%]
Pressure (altimeter): 29.14 inches Hg (987.0 mb)
Winds: from the SW (230 degrees) at 21 MPH (18 knots; 9.3 m/s)
Visibility: 4 miles ( 7 km)
Ceiling: at least 12,000 feet AGL
Clouds: few clouds at 700 feet AGL
scattered clouds at 2500 feet AGL
Weather: -SN  (light snow)

METAR text: SAWH 252135Z 23019KT 7000 -SN FEW007 SCT025 01/M00 Q0986
Conditions at: SAWH (USHUAIA (ARG-NAV, AR) observed 2135 UTC 25 October 2021
Temperature: 1.0°C (34°F)
Dewpoint: 0.0°C (32°F) [RH = 93%]
Pressure (altimeter): 29.11 inches Hg (986.0 mb)
Winds: from the SW (230 degrees) at 22 MPH (19 knots; 9.8 m/s)
Visibility: 4 miles ( 7 km)
Ceiling: at least 12,000 feet AGL
Clouds: few clouds at 700 feet AGL
scattered clouds at 2500 feet AGL
Weather: -SN  (light snow)

Forecast for: SAWH (USHUAIA (ARG-NAV, AR)
Text: TAF SAWH 251700Z 2518/2618 23025KT 3000 SN SCT007 BKN020 TX03/2518Z TNM02/2610Z
Forecast period: 1800 UTC 25 October 2021 to 1800 UTC 26 October 2021
Forecast type: FROM: standard forecast or significant change
Winds: from the SW (230 degrees) at 29 MPH (25 knots; 12.9 m/s)
Visibility: 1.86 miles (2.99 km)
Ceiling: 2000 feet AGL
Clouds: scattered clouds at 700 feet AGL
broken clouds at 2000 feet AGL
Weather: SN  (moderate snow)
Text: BECMG 2518/2520 VRB12KT 7000 RASN BKN010 BKN030
Forecast period: 1800 to 2200 UTC 25 October 2021
Forecast type: BECOMING: Conditions expected to become as follows by 2000 UTC 25 October 2021
Winds: variable direction winds at 14 MPH (12 knots; 6.2 m/s)
Visibility: 4 miles (7 km)
Ceiling: 1000 feet AGL
Clouds: broken clouds at 1000 feet AGL
broken clouds at 3000 feet AGL
Weather: RA SN  (moderate rain, moderate snow)
Text: BECMG 2522/2524 34006KT NSW SCT025 BKN060
Forecast period: 2200 UTC 25 October 2021 to 1800 UTC 26 October 2021
Forecast type: BECOMING: Conditions expected to become as follows by 0000 UTC 26 October 2021
Winds: from the NNW (340 degrees) at 7 MPH (6 knots; 3.1 m/s)
Visibility: 4 miles (7 km)
Ceiling: 6000 feet AGL
Clouds: scattered clouds at 2500 feet AGL
broken clouds at 6000 feet AGL
Weather: NSW  (no significant weather)

 AIRPORT MAP

 RUNWAY INFORMATION
Runway 7 Runway length 9186 ft Runway width 148 ft
Runway elevation 85 ft Runway displaced threshold 591 ft Runway heading 86
Runway 25 Runway length 9186 ft Runway width 148 ft
Runway elevation 74 ft Runway displaced threshold 525 ft Runway heading 266

 AIRPORT FREQUENCIES
Type RDO Name RDO Frequency 122.1 MHZ
Type TWR Name TWR/APP Frequency 118.1 MHZ

 AIRPORT NEAR NAVIGATION AIDS
Type VOR Name Ushuaia Frequency 113700 KHZ